createdAt,value
2018-06-14T00:00:17.266Z,985.50
2018-06-14T00:01:17.392Z,972.40
2018-06-14T00:02:17.341Z,993.70
2018-06-14T00:03:17.405Z,967.60
2018-06-14T00:04:17.459Z,972.60
2018-06-14T00:05:17.498Z,991.30
2018-06-14T00:06:17.539Z,995.80
2018-06-14T00:07:17.796Z,979.00
2018-06-14T00:08:17.633Z,987.60
2018-06-14T00:09:17.670Z,984.50
2018-06-14T00:10:17.717Z,968.80
2018-06-14T00:11:17.764Z,994.00
2018-06-14T00:12:17.805Z,982.40
2018-06-14T00:13:17.870Z,983.40
2018-06-14T00:14:17.916Z,974.30
2018-06-14T00:15:17.957Z,982.60
2018-06-14T00:16:17.993Z,975.90
2018-06-14T00:17:18.165Z,970.50
2018-06-14T00:18:18.105Z,967.50
2018-06-14T00:19:18.153Z,968.70
2018-06-14T00:20:18.176Z,963.20
2018-06-14T00:21:18.229Z,955.30
2018-06-14T00:22:18.284Z,966.40
2018-06-14T00:23:18.555Z,964.90
2018-06-14T00:24:18.371Z,956.00
2018-06-14T00:25:18.428Z,953.10
2018-06-14T00:26:18.483Z,961.20
2018-06-14T00:27:18.498Z,930.20
2018-06-14T00:28:18.565Z,902.60
2018-06-14T00:29:18.617Z,910.30
2018-06-14T00:30:18.844Z,919.00
2018-06-14T00:31:18.684Z,926.30
2018-06-14T00:32:18.750Z,940.30
2018-06-14T00:33:18.774Z,909.20
2018-06-14T00:34:18.841Z,884.00
2018-06-14T00:35:18.969Z,905.30
2018-06-14T00:36:18.915Z,900.90
2018-06-14T00:37:18.967Z,924.70
2018-06-14T00:38:19.020Z,908.90
2018-06-14T00:39:19.077Z,930.40
2018-06-14T00:40:19.119Z,910.90
2018-06-14T00:41:19.168Z,919.20
2018-06-14T00:42:19.309Z,909.30
2018-06-14T00:43:19.265Z,899.80
2018-06-14T00:44:19.282Z,907.20
2018-06-14T00:45:19.347Z,883.40
2018-06-14T00:46:19.392Z,873.40
2018-06-14T00:47:19.433Z,853.10
2018-06-14T00:48:19.698Z,869.40
2018-06-14T00:49:19.536Z,835.30
2018-06-14T00:50:19.570Z,826.40
2018-06-14T00:51:19.608Z,856.90
2018-06-14T00:52:19.669Z,824.50
2018-06-14T00:53:19.805Z,854.20
2018-06-14T00:54:19.850Z,852.60
2018-06-14T00:55:19.786Z,878.50
2018-06-14T00:56:19.848Z,886.30
2018-06-14T00:57:19.890Z,863.30
2018-06-14T00:58:19.930Z,826.20
2018-06-14T00:59:19.993Z,883.40
2018-06-14T01:00:20.137Z,853.70
2018-06-14T01:01:20.076Z,841.20
2018-06-14T01:02:20.120Z,862.90
2018-06-14T01:03:20.157Z,858.50
2018-06-14T01:04:20.203Z,872.30
2018-06-14T01:05:20.253Z,769.40
2018-06-14T01:06:20.516Z,824.00
2018-06-14T01:07:20.333Z,833.00
2018-06-14T01:08:20.390Z,853.50
2018-06-14T01:09:20.421Z,873.30
2018-06-14T01:10:20.482Z,829.10
2018-06-14T01:11:20.529Z,811.50
2018-06-14T01:12:20.584Z,829.70
2018-06-14T01:13:20.615Z,815.50
2018-06-14T01:14:20.653Z,827.50
2018-06-14T01:15:20.697Z,825.50
2018-06-14T01:16:20.849Z,846.20
2018-06-14T01:17:20.795Z,849.90
2018-06-14T01:18:20.858Z,853.70
2018-06-14T01:19:20.891Z,841.70
2018-06-14T01:20:20.942Z,843.50
2018-06-14T01:21:20.972Z,821.40
2018-06-14T01:22:21.222Z,781.50
2018-06-14T01:23:21.076Z,829.70
2018-06-14T01:24:21.111Z,796.50
2018-06-14T01:25:21.155Z,797.20
2018-06-14T01:26:21.210Z,780.70
2018-06-14T01:27:21.253Z,807.60
2018-06-14T01:28:21.306Z,815.30
2018-06-14T01:29:21.357Z,787.40
2018-06-14T01:30:21.393Z,804.70
2018-06-14T01:31:21.421Z,810.50
2018-06-14T01:32:21.682Z,813.10
2018-06-14T01:33:21.824Z,809.90
2018-06-14T01:34:21.565Z,799.00
2018-06-14T01:35:21.617Z,790.70
2018-06-14T01:36:21.656Z,796.50
2018-06-14T01:37:21.695Z,828.90
2018-06-14T01:38:21.762Z,796.50
2018-06-14T01:39:21.889Z,817.40
2018-06-14T01:40:22.062Z,843.90
2018-06-14T01:41:21.875Z,822.90
2018-06-14T01:42:21.933Z,809.90
2018-06-14T01:43:21.963Z,808.50
2018-06-14T01:44:22.017Z,791.30
2018-06-14T01:45:22.054Z,782.80
2018-06-14T01:46:22.316Z,801.80
2018-06-14T01:47:22.151Z,803.80
2018-06-14T01:48:22.202Z,786.30
2018-06-14T01:49:22.246Z,819.20
2018-06-14T01:50:22.295Z,813.80
2018-06-14T01:51:22.342Z,829.70
2018-06-14T01:52:22.388Z,811.10
2018-06-14T01:53:22.426Z,848.20
2018-06-14T01:54:22.482Z,827.40
2018-06-14T01:55:22.519Z,823.90
2018-06-14T01:56:22.652Z,813.50
2018-06-14T01:57:22.608Z,822.20
2018-06-14T01:58:22.655Z,841.30
2018-06-14T01:59:22.706Z,818.30
2018-06-14T02:00:22.751Z,810.30
2018-06-14T02:01:22.783Z,823.30
2018-06-14T02:02:22.839Z,798.50
2018-06-14T02:03:22.882Z,821.60
2018-06-14T02:04:22.922Z,831.60
2018-06-14T02:05:22.957Z,813.50
2018-06-14T02:06:23.005Z,806.00
2018-06-14T02:07:23.051Z,799.90
2018-06-14T02:08:23.110Z,816.30
2018-06-14T02:09:23.148Z,827.40
2018-06-14T02:10:23.190Z,811.70
2018-06-14T02:11:23.439Z,808.90
2018-06-14T02:12:23.299Z,824.80
2018-06-14T02:13:23.315Z,826.80
2018-06-14T02:14:23.373Z,820.80
2018-06-14T02:15:23.410Z,878.50
2018-06-14T02:16:23.470Z,807.40
2018-06-14T02:17:23.510Z,837.60
2018-06-14T02:18:23.572Z,827.70
2018-06-14T02:19:23.585Z,830.60
2018-06-14T02:20:23.649Z,837.30
2018-06-14T02:21:23.797Z,837.20
2018-06-14T02:22:23.729Z,861.70
2018-06-14T02:23:23.764Z,877.40
2018-06-14T02:24:23.823Z,870.60
2018-06-14T02:25:23.865Z,880.30
2018-06-14T02:26:23.901Z,870.60
2018-06-14T02:27:23.963Z,842.20
2018-06-14T02:28:23.990Z,849.40
2018-06-14T02:29:24.031Z,868.60
2018-06-14T02:30:24.090Z,827.40
2018-06-14T02:31:24.121Z,832.60
2018-06-14T02:32:24.170Z,867.00
2018-06-14T02:33:24.328Z,876.40
2018-06-14T02:34:24.273Z,867.30
2018-06-14T02:35:24.297Z,857.30
2018-06-14T02:36:24.363Z,820.90
2018-06-14T02:37:24.392Z,843.70
2018-06-14T02:38:24.451Z,834.30
2018-06-14T02:39:24.491Z,869.30
2018-06-14T02:40:24.623Z,865.40
2018-06-14T02:41:24.564Z,856.40
2018-06-14T02:42:24.611Z,878.70
2018-06-14T02:43:24.666Z,858.80
2018-06-14T02:44:24.719Z,819.40
2018-06-14T02:45:24.850Z,862.10
2018-06-14T02:46:24.790Z,823.10
2018-06-14T02:47:24.846Z,838.10
2018-06-14T02:48:24.892Z,858.80
2018-06-14T02:49:24.942Z,809.40
2018-06-14T02:50:24.966Z,828.30
2018-06-14T02:51:25.216Z,851.10
2018-06-14T02:52:25.070Z,822.30
2018-06-14T02:53:25.106Z,831.30
2018-06-14T02:54:25.151Z,803.50
2018-06-14T02:55:25.198Z,797.60
2018-06-14T02:56:25.256Z,818.40
2018-06-14T02:57:25.400Z,852.60
2018-06-14T02:58:25.327Z,861.80
2018-06-14T02:59:25.368Z,829.00
2018-06-14T03:00:25.418Z,812.30
2018-06-14T03:01:25.469Z,822.10
2018-06-14T03:02:25.709Z,844.20
2018-06-14T03:03:25.579Z,837.00
2018-06-14T03:04:25.593Z,823.90
2018-06-14T03:05:25.637Z,833.70
2018-06-14T03:06:25.687Z,808.60
2018-06-14T03:07:25.723Z,834.80
2018-06-14T03:08:25.882Z,820.20
2018-06-14T03:09:25.834Z,833.70
2018-06-14T03:10:25.862Z,841.30
2018-06-14T03:11:25.905Z,844.50
2018-06-14T03:12:25.975Z,865.10
2018-06-14T03:13:25.987Z,831.70
2018-06-14T03:14:26.051Z,846.40
2018-06-14T03:15:26.096Z,848.80
2018-06-14T03:16:26.126Z,928.80
2018-06-14T03:17:26.183Z,843.30
2018-06-14T03:18:26.425Z,809.80
2018-06-14T03:19:26.358Z,835.30
2018-06-14T03:20:26.314Z,817.90
2018-06-14T03:21:26.368Z,834.40
2018-06-14T03:22:26.394Z,826.90
2018-06-14T03:23:26.440Z,851.40
2018-06-14T03:24:26.476Z,829.10
2018-06-14T03:25:26.730Z,834.90
2018-06-14T03:26:26.580Z,843.40
2018-06-14T03:27:26.612Z,869.30
2018-06-14T03:28:26.669Z,825.30
2018-06-14T03:29:26.697Z,813.00
2018-06-14T03:30:26.840Z,829.10
2018-06-14T03:31:26.802Z,801.10
2018-06-14T03:32:26.847Z,774.40
2018-06-14T03:33:26.886Z,794.10
2018-06-14T03:34:26.925Z,795.90
2018-06-14T03:35:26.976Z,807.50
2018-06-14T03:36:27.225Z,809.70
2018-06-14T03:37:27.067Z,796.10
2018-06-14T03:38:27.111Z,789.00
2018-06-14T03:39:27.152Z,903.50
2018-06-14T03:40:27.197Z,795.70
2018-06-14T03:41:27.248Z,815.90
2018-06-14T03:42:27.397Z,805.80
2018-06-14T03:43:27.329Z,780.30
2018-06-14T03:44:27.374Z,772.20
2018-06-14T03:45:27.433Z,860.30
2018-06-14T03:46:27.469Z,788.60
2018-06-14T03:47:27.511Z,795.60
2018-06-14T03:48:27.535Z,818.00
2018-06-14T03:49:27.593Z,849.30
2018-06-14T03:50:27.637Z,819.70
2018-06-14T03:51:27.674Z,802.60
2018-06-14T03:52:27.819Z,818.60
2018-06-14T03:53:27.773Z,805.70
2018-06-14T03:54:27.815Z,821.60
2018-06-14T03:55:27.843Z,838.60
2018-06-14T03:56:27.896Z,855.90
2018-06-14T03:57:27.951Z,862.90
2018-06-14T03:58:28.240Z,831.10
2018-06-14T03:59:28.033Z,879.30
2018-06-14T04:00:28.081Z,804.10
2018-06-14T04:01:28.121Z,811.30
2018-06-14T04:02:28.156Z,838.90
2018-06-14T04:03:28.218Z,862.40
2018-06-14T04:04:28.342Z,828.70
2018-06-14T04:05:28.303Z,820.10
2018-06-14T04:06:28.334Z,823.10
2018-06-14T04:07:28.372Z,812.20
2018-06-14T04:08:28.418Z,805.80
2018-06-14T04:09:28.489Z,853.50
2018-06-14T04:10:28.550Z,855.30
2018-06-14T04:11:28.553Z,807.00
2018-06-14T04:12:28.620Z,825.70
2018-06-14T04:13:28.656Z,825.50
2018-06-14T04:14:28.795Z,817.90
2018-06-14T04:15:28.938Z,823.50
2018-06-14T04:16:28.775Z,865.60
2018-06-14T04:17:28.830Z,865.40
2018-06-14T04:18:28.879Z,807.40
2018-06-14T04:19:28.923Z,815.00
2018-06-14T04:20:29.006Z,863.40
2018-06-14T04:21:28.997Z,811.10
2018-06-14T04:22:29.046Z,782.70
2018-06-14T04:23:29.109Z,838.20
2018-06-14T04:24:29.124Z,797.90
2018-06-14T04:25:29.283Z,833.10
2018-06-14T04:26:29.211Z,822.20
2018-06-14T04:27:29.315Z,820.20
2018-06-14T04:28:29.320Z,827.80
2018-06-14T04:29:29.353Z,814.30
2018-06-14T04:30:29.583Z,812.80
2018-06-14T04:31:29.434Z,805.10
2018-06-14T04:32:29.469Z,817.30
2018-06-14T04:33:29.531Z,799.70
2018-06-14T04:34:29.571Z,796.70
2018-06-14T04:35:29.629Z,796.40
2018-06-14T04:36:29.663Z,819.20
2018-06-14T04:37:29.713Z,814.50
2018-06-14T04:38:29.752Z,805.00
2018-06-14T04:39:29.808Z,787.30
2018-06-14T04:40:29.955Z,793.00
2018-06-14T04:41:30.082Z,821.70
2018-06-14T04:42:29.928Z,832.40
2018-06-14T04:43:29.968Z,786.50
2018-06-14T04:44:29.999Z,805.00
2018-06-14T04:45:30.057Z,837.40
2018-06-14T04:46:30.100Z,784.30
2018-06-14T04:47:30.255Z,805.30
2018-06-14T04:48:30.194Z,799.10
2018-06-14T04:49:30.235Z,784.00
2018-06-14T04:50:30.263Z,876.10
2018-06-14T04:51:30.309Z,806.70
2018-06-14T04:52:30.559Z,797.60
2018-06-14T04:53:30.438Z,801.50
2018-06-14T04:54:30.459Z,810.30
2018-06-14T04:55:30.483Z,815.80
2018-06-14T04:56:30.527Z,811.70
2018-06-14T04:57:30.587Z,815.40
2018-06-14T04:58:30.635Z,813.70
2018-06-14T04:59:30.661Z,800.70
2018-06-14T05:00:30.700Z,814.40
2018-06-14T05:01:30.759Z,807.90
2018-06-14T05:02:30.934Z,807.50
2018-06-14T05:03:31.062Z,865.90
2018-06-14T05:04:30.895Z,798.10
2018-06-14T05:05:30.943Z,815.10
2018-06-14T05:06:30.976Z,806.00
2018-06-14T05:07:31.016Z,812.50
2018-06-14T05:08:31.054Z,805.80
2018-06-14T05:09:31.202Z,817.00
2018-06-14T05:10:31.157Z,806.90
2018-06-14T05:11:31.197Z,876.40
2018-06-14T05:12:31.245Z,851.20
2018-06-14T05:13:31.270Z,807.50
2018-06-14T05:14:31.515Z,810.30
2018-06-14T05:15:31.380Z,846.00
2018-06-14T05:16:31.429Z,825.50
2018-06-14T05:17:31.445Z,807.80
2018-06-14T05:18:31.490Z,791.40
2018-06-14T05:19:31.545Z,795.50
2018-06-14T05:20:31.601Z,792.60
2018-06-14T05:21:31.619Z,810.20
2018-06-14T05:22:31.676Z,829.90
2018-06-14T05:23:31.762Z,816.20
2018-06-14T05:24:31.850Z,800.80
2018-06-14T05:25:31.823Z,807.70
2018-06-14T05:26:31.859Z,808.10
2018-06-14T05:27:31.881Z,829.60
2018-06-14T05:28:31.953Z,828.90
2018-06-14T05:29:31.967Z,791.00
2018-06-14T05:30:32.224Z,788.40
2018-06-14T05:31:32.053Z,773.70
2018-06-14T05:32:32.124Z,781.50
2018-06-14T05:33:32.153Z,786.30
2018-06-14T05:34:32.194Z,799.50
2018-06-14T05:35:32.353Z,819.10
2018-06-14T05:36:32.397Z,805.60
2018-06-14T05:37:32.332Z,765.40
2018-06-14T05:38:32.375Z,783.60
2018-06-14T05:39:32.409Z,871.80
2018-06-14T05:40:32.460Z,808.30
2018-06-14T05:41:32.696Z,845.70
2018-06-14T05:42:32.633Z,784.70
2018-06-14T05:43:32.593Z,795.00
2018-06-14T05:44:32.624Z,812.80
2018-06-14T05:45:32.679Z,791.50
2018-06-14T05:46:32.831Z,922.40
2018-06-14T05:47:32.763Z,795.70
2018-06-14T05:48:32.801Z,909.60
2018-06-14T05:49:32.848Z,881.20
2018-06-14T05:50:32.901Z,846.80
2018-06-14T05:51:33.030Z,920.80
2018-06-14T05:52:33.171Z,808.70
2018-06-14T05:53:33.040Z,822.90
2018-06-14T05:54:33.056Z,901.10
2018-06-14T05:55:33.121Z,834.10
2018-06-14T05:56:33.166Z,807.80
2018-06-14T05:57:33.303Z,812.30
2018-06-14T05:58:33.330Z,803.90
2018-06-14T05:59:33.279Z,844.60
2018-06-14T06:00:33.317Z,795.70
2018-06-14T06:01:33.363Z,825.60
2018-06-14T06:02:33.418Z,812.70
2018-06-14T06:03:33.665Z,812.60
2018-06-14T06:04:33.612Z,820.90
2018-06-14T06:05:33.532Z,828.50
2018-06-14T06:06:33.576Z,801.40
2018-06-14T06:07:33.639Z,784.70
2018-06-14T06:08:33.676Z,896.90
2018-06-14T06:09:33.807Z,801.50
2018-06-14T06:10:33.753Z,843.60
2018-06-14T06:11:33.824Z,823.00
2018-06-14T06:12:33.841Z,818.30
2018-06-14T06:13:33.891Z,801.40
2018-06-14T06:14:34.144Z,950.30
2018-06-14T06:15:33.966Z,818.10
2018-06-14T06:16:34.025Z,806.80
2018-06-14T06:17:34.062Z,830.90
2018-06-14T06:18:34.117Z,820.90
2018-06-14T06:19:34.260Z,778.40
2018-06-14T06:20:34.191Z,810.10
2018-06-14T06:21:34.226Z,817.40
2018-06-14T06:22:34.288Z,797.70
2018-06-14T06:23:34.319Z,866.70
2018-06-14T06:24:34.466Z,781.30
2018-06-14T06:25:34.663Z,771.50
2018-06-14T06:26:34.461Z,798.60
2018-06-14T06:27:34.516Z,865.40
2018-06-14T06:28:34.552Z,866.30
2018-06-14T06:29:34.580Z,777.30
2018-06-14T06:30:34.727Z,783.90
2018-06-14T06:31:34.687Z,834.00
2018-06-14T06:32:34.730Z,760.20
2018-06-14T06:33:34.766Z,793.40
2018-06-14T06:34:34.821Z,790.70
2018-06-14T06:35:34.835Z,827.20
2018-06-14T06:36:35.084Z,859.60
2018-06-14T06:37:34.919Z,788.80
2018-06-14T06:38:34.993Z,768.80
2018-06-14T06:39:35.021Z,774.80
2018-06-14T06:40:35.076Z,810.00
2018-06-14T06:41:35.115Z,792.90
2018-06-14T06:42:35.236Z,823.20
2018-06-14T06:43:35.285Z,775.40
2018-06-14T06:44:35.259Z,778.30
2018-06-14T06:45:35.273Z,797.90
2018-06-14T06:46:35.327Z,828.90
2018-06-14T06:47:35.369Z,765.90
2018-06-14T06:48:35.412Z,872.70
2018-06-14T06:49:35.661Z,741.50
2018-06-14T06:50:35.488Z,808.80
2018-06-14T06:51:35.548Z,800.00
2018-06-14T06:52:35.600Z,794.60
2018-06-14T06:53:35.624Z,797.90
2018-06-14T06:54:35.763Z,790.10
2018-06-14T06:55:35.724Z,784.10
2018-06-14T06:56:35.747Z,818.30
2018-06-14T06:57:35.815Z,803.60
2018-06-14T06:58:35.858Z,788.00
2018-06-14T06:59:35.899Z,789.30
2018-06-14T07:00:36.134Z,890.40
2018-06-14T07:01:35.977Z,788.90
2018-06-14T07:02:36.006Z,806.60
2018-06-14T07:03:36.049Z,791.80
2018-06-14T07:04:36.108Z,819.90
2018-06-14T07:05:36.137Z,821.40
2018-06-14T07:06:36.292Z,810.90
2018-06-14T07:07:36.245Z,956.70
2018-06-14T07:08:36.285Z,813.40
2018-06-14T07:09:36.338Z,815.40
2018-06-14T07:10:36.375Z,812.60
2018-06-14T07:11:36.406Z,815.80
2018-06-14T07:12:36.653Z,797.10
2018-06-14T07:13:36.503Z,822.60
2018-06-14T07:14:36.551Z,867.30
2018-06-14T07:15:36.575Z,832.00
2018-06-14T07:16:36.616Z,810.10
2018-06-14T07:17:36.692Z,837.60
2018-06-14T07:18:36.805Z,788.70
2018-06-14T07:19:36.757Z,789.80
2018-06-14T07:20:36.909Z,797.80
2018-06-14T07:21:36.874Z,797.00
2018-06-14T07:22:36.875Z,781.70
2018-06-14T07:23:36.924Z,771.20
2018-06-14T07:24:37.162Z,778.30
2018-06-14T07:25:37.007Z,760.10
2018-06-14T07:26:37.062Z,785.00
2018-06-14T07:27:37.099Z,782.50
2018-06-14T07:28:37.134Z,779.30
2018-06-14T07:29:37.183Z,770.40
2018-06-14T07:30:37.253Z,818.10
2018-06-14T07:31:37.277Z,759.10
2018-06-14T07:32:37.314Z,764.10
2018-06-14T07:33:37.349Z,794.20
2018-06-14T07:34:37.494Z,762.60
2018-06-14T07:35:37.451Z,769.50
2018-06-14T07:36:37.492Z,759.70
2018-06-14T07:37:37.551Z,774.50
2018-06-14T07:38:37.576Z,784.30
2018-06-14T07:39:37.808Z,774.50
2018-06-14T07:40:37.649Z,776.60
2018-06-14T07:41:37.708Z,776.20
2018-06-14T07:42:37.750Z,788.50
2018-06-14T07:43:37.802Z,778.30
2018-06-14T07:44:37.852Z,809.50
2018-06-14T07:45:37.965Z,758.30
2018-06-14T07:46:37.927Z,786.70
2018-06-14T07:47:37.970Z,781.20
2018-06-14T07:48:37.997Z,762.20
2018-06-14T07:49:38.037Z,766.80
2018-06-14T07:50:38.294Z,775.50
2018-06-14T07:51:38.130Z,812.40
2018-06-14T07:52:38.186Z,814.80
2018-06-14T07:53:38.227Z,763.50
2018-06-14T07:54:38.264Z,756.80
2018-06-14T07:55:38.311Z,767.90
2018-06-14T07:56:38.452Z,802.10
2018-06-14T07:57:38.394Z,783.00
2018-06-14T07:58:38.422Z,764.40
2018-06-14T07:59:38.477Z,765.70
2018-06-14T08:00:38.519Z,808.30
2018-06-14T08:01:38.765Z,766.90
2018-06-14T08:02:38.612Z,778.90
2018-06-14T08:03:38.641Z,786.20
2018-06-14T08:04:38.677Z,778.10
2018-06-14T08:05:38.740Z,736.40
2018-06-14T08:06:38.789Z,758.40
2018-06-14T08:07:38.920Z,778.20
2018-06-14T08:08:38.871Z,778.50
2018-06-14T08:09:38.914Z,814.40
2018-06-14T08:10:38.933Z,774.60
2018-06-14T08:11:38.978Z,779.40
2018-06-14T08:12:39.067Z,750.70
2018-06-14T08:13:39.281Z,773.10
2018-06-14T08:14:39.115Z,713.60
2018-06-14T08:15:39.146Z,745.00
2018-06-14T08:16:39.195Z,750.70
2018-06-14T08:17:39.262Z,811.80
2018-06-14T08:18:39.271Z,800.20
2018-06-14T08:19:39.448Z,759.90
2018-06-14T08:20:39.371Z,753.70
2018-06-14T08:21:39.411Z,759.60
2018-06-14T08:22:39.446Z,737.90
2018-06-14T08:23:39.497Z,783.00
2018-06-14T08:24:39.523Z,754.10
2018-06-14T08:25:39.589Z,753.50
2018-06-14T08:26:39.631Z,782.60
2018-06-14T08:27:39.655Z,764.90
2018-06-14T08:28:39.697Z,797.30
2018-06-14T08:29:39.937Z,785.30
2018-06-14T08:30:39.801Z,804.30
2018-06-14T08:31:39.841Z,752.50
2018-06-14T08:32:39.874Z,741.80
2018-06-14T08:33:39.921Z,777.10
2018-06-14T08:34:40.063Z,816.90
2018-06-14T08:35:40.006Z,744.90
2018-06-14T08:36:40.071Z,778.80
2018-06-14T08:37:40.091Z,785.00
2018-06-14T08:38:40.134Z,779.40
2018-06-14T08:39:40.157Z,787.00
2018-06-14T08:40:40.418Z,769.90
2018-06-14T08:41:40.241Z,738.10
2018-06-14T08:42:40.285Z,736.30
2018-06-14T08:43:40.332Z,731.10
2018-06-14T08:44:40.407Z,757.20
2018-06-14T08:45:40.511Z,756.40
2018-06-14T08:46:40.455Z,753.10
2018-06-14T08:47:40.494Z,711.90
2018-06-14T08:48:40.542Z,740.40
2018-06-14T08:49:40.584Z,731.20
2018-06-14T08:50:40.634Z,734.80
2018-06-14T08:51:40.889Z,765.60
2018-06-14T08:52:40.730Z,761.10
2018-06-14T08:53:40.777Z,745.50
2018-06-14T08:54:40.803Z,726.10
2018-06-14T08:55:40.854Z,717.90
2018-06-14T08:56:40.873Z,759.40
2018-06-14T08:57:41.031Z,734.10
2018-06-14T08:58:40.972Z,762.10
2018-06-14T08:59:41.017Z,736.30
2018-06-14T09:00:41.041Z,735.80
2018-06-14T09:01:41.103Z,764.40
2018-06-14T09:02:41.137Z,751.00
2018-06-14T09:03:41.389Z,737.40
2018-06-14T09:04:41.208Z,746.70
2018-06-14T09:05:41.268Z,749.20
2018-06-14T09:06:41.312Z,779.60
2018-06-14T09:07:41.352Z,739.70
2018-06-14T09:08:41.377Z,765.40
2018-06-14T09:09:41.417Z,845.60
2018-06-14T09:10:41.461Z,822.00
2018-06-14T09:11:41.529Z,827.30
2018-06-14T09:12:41.546Z,798.10
2018-06-14T09:13:41.698Z,819.10
2018-06-14T09:14:41.829Z,792.50
2018-06-14T09:15:41.674Z,815.70
2018-06-14T09:16:41.713Z,839.00
2018-06-14T09:17:41.768Z,780.50
2018-06-14T09:18:41.818Z,807.00
2018-06-14T09:19:41.856Z,796.80
2018-06-14T09:20:41.994Z,786.50
2018-06-14T09:21:41.944Z,797.70
2018-06-14T09:22:41.963Z,791.90
2018-06-14T09:23:42.032Z,793.20
2018-06-14T09:24:42.071Z,790.30
2018-06-14T09:25:42.342Z,779.10
2018-06-14T09:26:42.141Z,767.90
2018-06-14T09:27:42.188Z,753.40
2018-06-14T09:28:42.230Z,762.80
2018-06-14T09:29:42.263Z,759.50
2018-06-14T09:30:42.301Z,797.40
2018-06-14T09:31:42.461Z,763.10
2018-06-14T09:32:42.400Z,796.00
2018-06-14T09:33:42.446Z,784.20
2018-06-14T09:34:42.473Z,769.40
2018-06-14T09:35:42.543Z,878.00
2018-06-14T09:36:42.559Z,799.60
2018-06-14T09:37:42.593Z,851.80
2018-06-14T09:38:42.660Z,833.90
2018-06-14T09:39:42.699Z,816.30
2018-06-14T09:40:42.747Z,811.30
2018-06-14T09:41:42.762Z,783.50
2018-06-14T09:42:42.958Z,760.30
2018-06-14T09:43:42.859Z,802.30
2018-06-14T09:44:42.894Z,801.60
2018-06-14T09:45:42.935Z,760.60
2018-06-14T09:46:42.984Z,785.70
2018-06-14T09:47:43.015Z,755.40
2018-06-14T09:48:43.272Z,769.00
2018-06-14T09:49:43.112Z,769.90
2018-06-14T09:50:43.160Z,782.80
2018-06-14T09:51:43.191Z,753.60
2018-06-14T09:52:43.239Z,777.00
2018-06-14T09:53:43.276Z,783.60
2018-06-14T09:54:43.319Z,769.60
2018-06-14T09:55:43.354Z,748.40
2018-06-14T09:56:43.409Z,756.30
2018-06-14T09:57:43.451Z,802.70
2018-06-14T09:58:43.586Z,792.60
2018-06-14T09:59:43.549Z,781.70
2018-06-14T10:00:43.579Z,762.90
2018-06-14T10:01:43.620Z,777.70
2018-06-14T10:02:43.664Z,818.00
2018-06-14T10:03:43.890Z,768.80
2018-06-14T10:04:43.753Z,788.50
2018-06-14T10:05:43.790Z,769.30
2018-06-14T10:06:43.830Z,756.20
2018-06-14T10:07:43.877Z,749.60
2018-06-14T10:08:43.917Z,786.20
2018-06-14T10:09:44.051Z,756.20
2018-06-14T10:10:43.984Z,853.40
2018-06-14T10:11:44.031Z,809.10
2018-06-14T10:12:44.090Z,801.20
2018-06-14T10:13:44.130Z,793.70
2018-06-14T10:14:44.182Z,812.70
2018-06-14T10:15:44.296Z,804.70
2018-06-14T10:16:44.239Z,804.90
2018-06-14T10:17:44.302Z,801.40
2018-06-14T10:18:44.391Z,810.00
2018-06-14T10:19:44.381Z,847.50
2018-06-14T10:20:44.427Z,842.60
2018-06-14T10:21:44.609Z,859.30
2018-06-14T10:22:44.511Z,805.90
2018-06-14T10:23:44.548Z,851.80
2018-06-14T10:24:44.615Z,816.50
2018-06-14T10:25:44.630Z,838.30
2018-06-14T10:26:44.672Z,804.70
2018-06-14T10:27:44.917Z,807.70
2018-06-14T10:28:44.758Z,793.20
2018-06-14T10:29:44.793Z,859.00
2018-06-14T10:30:44.830Z,807.80
2018-06-14T10:31:44.888Z,809.90
2018-06-14T10:32:45.028Z,797.80
2018-06-14T10:33:44.965Z,808.60
2018-06-14T10:34:45.049Z,821.10
2018-06-14T10:35:45.053Z,842.00
2018-06-14T10:36:45.093Z,817.90
2018-06-14T10:37:45.141Z,822.50
2018-06-14T10:38:45.164Z,826.00
2018-06-14T10:39:45.227Z,810.90
2018-06-14T10:40:45.269Z,824.10
2018-06-14T10:41:45.300Z,830.40
2018-06-14T10:42:45.461Z,822.90
2018-06-14T10:43:45.391Z,808.70
2018-06-14T10:44:45.441Z,820.20
2018-06-14T10:45:45.477Z,793.20
2018-06-14T10:46:45.521Z,794.10
2018-06-14T10:47:45.561Z,824.30
2018-06-14T10:48:45.824Z,815.50
2018-06-14T10:49:45.634Z,889.50
2018-06-14T10:50:45.701Z,812.00
2018-06-14T10:51:45.736Z,824.70
2018-06-14T10:52:45.784Z,873.50
2018-06-14T10:53:45.818Z,802.10
2018-06-14T10:54:45.964Z,812.70
2018-06-14T10:55:45.910Z,796.80
2018-06-14T10:56:45.932Z,801.70
2018-06-14T10:57:45.972Z,809.20
2018-06-14T10:58:46.038Z,872.80
2018-06-14T10:59:46.070Z,795.00
2018-06-14T11:00:46.135Z,829.00
2018-06-14T11:01:46.172Z,806.40
2018-06-14T11:02:46.190Z,803.40
2018-06-14T11:03:46.261Z,798.20
2018-06-14T11:04:46.390Z,809.00
2018-06-14T11:05:46.314Z,811.60
2018-06-14T11:06:46.376Z,835.70
2018-06-14T11:07:46.423Z,799.50
2018-06-14T11:08:46.457Z,790.80
2018-06-14T11:09:46.757Z,784.40
2018-06-14T11:10:46.950Z,843.10
2018-06-14T11:11:46.584Z,765.90
2018-06-14T11:12:46.634Z,795.50
2018-06-14T11:13:46.669Z,808.50
2018-06-14T11:14:46.707Z,781.20
2018-06-14T11:15:46.754Z,795.30
2018-06-14T11:16:46.798Z,785.50
2018-06-14T11:17:46.840Z,781.10
2018-06-14T11:18:46.871Z,784.50
2018-06-14T11:19:46.927Z,790.80
2018-06-14T11:20:46.975Z,728.90
2018-06-14T11:21:47.018Z,861.40
2018-06-14T11:22:47.163Z,811.60
2018-06-14T11:23:47.098Z,867.90
2018-06-14T11:24:47.127Z,852.70
2018-06-14T11:25:47.184Z,767.60
2018-06-14T11:26:47.212Z,770.20
2018-06-14T11:27:47.258Z,798.10
2018-06-14T11:28:47.568Z,771.50
2018-06-14T11:29:47.342Z,787.60
2018-06-14T11:30:47.398Z,810.00
2018-06-14T11:31:47.430Z,784.40
2018-06-14T11:32:47.472Z,761.20
2018-06-14T11:33:47.577Z,794.30
2018-06-14T11:34:47.672Z,788.30
2018-06-14T11:35:47.610Z,801.00
2018-06-14T11:36:47.657Z,759.90
2018-06-14T11:37:47.684Z,772.10
2018-06-14T11:38:47.742Z,767.60
2018-06-14T11:39:47.776Z,771.60
2018-06-14T11:40:47.825Z,789.30
2018-06-14T11:41:47.872Z,773.80
2018-06-14T11:42:47.915Z,759.00
2018-06-14T11:43:47.955Z,782.00
2018-06-14T11:44:47.998Z,780.50
2018-06-14T11:45:48.025Z,886.90
2018-06-14T11:46:48.086Z,756.50
2018-06-14T11:47:48.115Z,722.20
2018-06-14T11:48:48.170Z,809.40
2018-06-14T11:49:48.326Z,754.40
2018-06-14T11:50:48.247Z,811.80
2018-06-14T11:51:48.289Z,744.60
2018-06-14T11:52:48.349Z,791.90
2018-06-14T11:53:48.373Z,904.00
2018-06-14T11:54:48.427Z,750.20
2018-06-14T11:55:48.468Z,846.90
2018-06-14T11:56:48.520Z,738.50
2018-06-14T11:57:48.544Z,778.60
2018-06-14T11:58:48.609Z,781.70
2018-06-14T11:59:48.732Z,748.70
2018-06-14T12:00:48.672Z,732.50
2018-06-14T12:01:48.805Z,755.80
2018-06-14T12:02:48.788Z,709.90
2018-06-14T12:03:48.812Z,717.90
2018-06-14T12:04:48.847Z,872.70
2018-06-14T12:05:48.905Z,771.60
2018-06-14T12:06:49.052Z,779.10
2018-06-14T12:07:48.978Z,778.30
2018-06-14T12:08:49.038Z,763.00
2018-06-14T12:09:49.072Z,762.50
2018-06-14T12:10:49.110Z,766.40
2018-06-14T12:11:49.171Z,760.70
2018-06-14T12:12:49.306Z,831.80
2018-06-14T12:13:49.250Z,754.40
2018-06-14T12:14:49.290Z,764.30
2018-06-14T12:15:49.332Z,760.50
2018-06-14T12:16:49.380Z,781.50
2018-06-14T12:17:49.431Z,822.00
2018-06-14T12:18:49.481Z,797.30
2018-06-14T12:19:49.499Z,801.40
2018-06-14T12:20:49.548Z,880.50
2018-06-14T12:21:49.614Z,830.60
2018-06-14T12:22:49.753Z,817.30
2018-06-14T12:23:49.673Z,779.00
2018-06-14T12:24:49.720Z,799.60
2018-06-14T12:25:49.777Z,813.60
2018-06-14T12:26:49.835Z,802.60
2018-06-14T12:27:49.856Z,795.80
2018-06-14T12:28:50.000Z,775.90